sensor_id;sensor_type;location;lat;lon;timestamp;pressure;altitude;pressure_sealevel;temperature;humidity
58018;BME280;43810;50.860;19.226;2023-05-29T00:00:48;98838.47;;;7.79;84.39
58018;BME280;43810;50.860;19.226;2023-05-29T00:03:25;98831.63;;;7.78;84.71
58018;BME280;43810;50.860;19.226;2023-05-29T00:05:52;98835.47;;;7.72;84.96
58018;BME280;43810;50.860;19.226;2023-05-29T00:08:17;98834.19;;;7.70;85.15
58018;BME280;43810;50.860;19.226;2023-05-29T00:10:49;98830.13;;;7.64;85.42
58018;BME280;43810;50.860;19.226;2023-05-29T00:13:15;98829.84;;;7.65;85.68
58018;BME280;43810;50.860;19.226;2023-05-29T00:15:41;98826.88;;;7.67;86.40
58018;BME280;43810;50.860;19.226;2023-05-29T00:18:07;98836.84;;;7.70;86.58
58018;BME280;43810;50.860;19.226;2023-05-29T00:20:33;98827.38;;;7.69;86.75
58018;BME280;43810;50.860;19.226;2023-05-29T00:23:10;98829.84;;;7.65;86.76
58018;BME280;43810;50.860;19.226;2023-05-29T00:25:36;98837.28;;;7.63;87.08
58018;BME280;43810;50.860;19.226;2023-05-29T00:28:11;98846.88;;;7.59;87.00
58018;BME280;43810;50.860;19.226;2023-05-29T00:30:38;98837.09;;;7.60;87.28
58018;BME280;43810;50.860;19.226;2023-05-29T00:33:05;98824.34;;;7.62;87.57
58018;BME280;43810;50.860;19.226;2023-05-29T00:35:31;98828.25;;;7.64;87.57
58018;BME280;43810;50.860;19.226;2023-05-29T00:37:58;98838.53;;;7.66;87.85
58018;BME280;43810;50.860;19.226;2023-05-29T00:40:25;98836.38;;;7.68;87.76
58018;BME280;43810;50.860;19.226;2023-05-29T00:42:51;98830.13;;;7.64;87.82
58018;BME280;43810;50.860;19.226;2023-05-29T00:45:17;98837.56;;;7.62;88.09
58018;BME280;43810;50.860;19.226;2023-05-29T00:47:43;98821.53;;;7.58;88.40
58018;BME280;43810;50.860;19.226;2023-05-29T00:50:10;98826.97;;;7.53;87.92
58018;BME280;43810;50.860;19.226;2023-05-29T00:52:43;98819.28;;;7.43;88.08
58018;BME280;43810;50.860;19.226;2023-05-29T00:55:09;98820.94;;;7.39;88.35
58018;BME280;43810;50.860;19.226;2023-05-29T00:57:36;98827.44;;;7.33;88.56
58018;BME280;43810;50.860;19.226;2023-05-29T01:00:05;98814.47;;;7.23;88.54
58018;BME280;43810;50.860;19.226;2023-05-29T01:02:35;98819.88;;;7.17;88.25
58018;BME280;43810;50.860;19.226;2023-05-29T01:05:02;98815.66;;;7.16;88.07
58018;BME280;43810;50.860;19.226;2023-05-29T01:07:27;98806.47;;;7.14;88.17
58018;BME280;43810;50.860;19.226;2023-05-29T01:09:53;98801.66;;;7.16;88.29
58018;BME280;43810;50.860;19.226;2023-05-29T01:17:32;98802.19;;;7.04;88.04
58018;BME280;43810;50.860;19.226;2023-05-29T01:26:11;98809.88;;;7.14;87.32
58018;BME280;43810;50.860;19.226;2023-05-29T01:28:47;98810.50;;;7.11;87.18
58018;BME280;43810;50.860;19.226;2023-05-29T01:31:19;98810.00;;;7.09;87.21
58018;BME280;43810;50.860;19.226;2023-05-29T01:33:56;98810.78;;;7.10;87.16
58018;BME280;43810;50.860;19.226;2023-05-29T01:36:23;98808.25;;;7.05;87.12
58018;BME280;43810;50.860;19.226;2023-05-29T01:38:50;98808.06;;;7.01;86.77
58018;BME280;43810;50.860;19.226;2023-05-29T01:41:18;98806.63;;;6.95;86.69
58018;BME280;43810;50.860;19.226;2023-05-29T01:43:45;98801.34;;;6.95;86.63
58018;BME280;43810;50.860;19.226;2023-05-29T01:46:13;98802.91;;;6.96;86.65
58018;BME280;43810;50.860;19.226;2023-05-29T01:48:40;98796.66;;;6.92;86.58
58018;BME280;43810;50.860;19.226;2023-05-29T01:51:07;98801.94;;;6.92;86.69
58018;BME280;43810;50.860;19.226;2023-05-29T01:53:33;98802.53;;;6.89;86.62
58018;BME280;43810;50.860;19.226;2023-05-29T01:56:00;98804.69;;;6.87;86.98
58018;BME280;43810;50.860;19.226;2023-05-29T01:58:27;98797.06;;;6.86;86.32
58018;BME280;43810;50.860;19.226;2023-05-29T02:00:53;98798.41;;;6.83;86.44
58018;BME280;43810;50.860;19.226;2023-05-29T02:03:20;98796.78;;;6.73;86.75
58018;BME280;43810;50.860;19.226;2023-05-29T02:05:47;98793.06;;;6.74;88.03
58018;BME280;43810;50.860;19.226;2023-05-29T02:08:12;98802.22;;;6.77;88.20
58018;BME280;43810;50.860;19.226;2023-05-29T02:10:38;98794.50;;;6.80;88.15
58018;BME280;43810;50.860;19.226;2023-05-29T02:13:04;98791.38;;;6.78;87.45
58018;BME280;43810;50.860;19.226;2023-05-29T02:15:30;98789.22;;;6.80;86.65
58018;BME280;43810;50.860;19.226;2023-05-29T02:17:56;98792.28;;;6.74;86.73
58018;BME280;43810;50.860;19.226;2023-05-29T02:20:24;98794.31;;;6.77;86.82
58018;BME280;43810;50.860;19.226;2023-05-29T02:22:50;98790.22;;;6.71;86.95
58018;BME280;43810;50.860;19.226;2023-05-29T02:25:16;98791.66;;;6.77;86.40
58018;BME280;43810;50.860;19.226;2023-05-29T02:27:41;98798.84;;;6.76;86.89
58018;BME280;43810;50.860;19.226;2023-05-29T02:30:07;98788.88;;;6.60;86.87
58018;BME280;43810;50.860;19.226;2023-05-29T02:32:33;98786.97;;;6.38;86.94
58018;BME280;43810;50.860;19.226;2023-05-29T02:34:59;98784.41;;;6.33;87.21
58018;BME280;43810;50.860;19.226;2023-05-29T02:37:25;98787.47;;;6.40;87.54
58018;BME280;43810;50.860;19.226;2023-05-29T02:39:51;98775.34;;;6.39;87.55
58018;BME280;43810;50.860;19.226;2023-05-29T02:42:17;98784.03;;;6.39;87.86
58018;BME280;43810;50.860;19.226;2023-05-29T02:44:43;98776.63;;;6.41;87.84
58018;BME280;43810;50.860;19.226;2023-05-29T02:47:09;98788.03;;;6.51;87.90
58018;BME280;43810;50.860;19.226;2023-05-29T02:49:35;98793.41;;;6.45;88.31
58018;BME280;43810;50.860;19.226;2023-05-29T02:52:00;98789.81;;;6.41;88.32
58018;BME280;43810;50.860;19.226;2023-05-29T02:54:26;98791.47;;;6.37;87.39
58018;BME280;43810;50.860;19.226;2023-05-29T02:56:52;98791.84;;;6.31;87.49
58018;BME280;43810;50.860;19.226;2023-05-29T02:59:18;98787.97;;;6.28;87.64
58018;BME280;43810;50.860;19.226;2023-05-29T03:01:44;98790.97;;;6.22;87.22
58018;BME280;43810;50.860;19.226;2023-05-29T03:04:11;98788.63;;;6.20;87.94
58018;BME280;43810;50.860;19.226;2023-05-29T03:06:37;98777.19;;;6.25;88.05
58018;BME280;43810;50.860;19.226;2023-05-29T03:09:04;98777.28;;;6.33;88.40
58018;BME280;43810;50.860;19.226;2023-05-29T03:11:33;98776.13;;;6.39;88.36
58018;BME280;43810;50.860;19.226;2023-05-29T03:14:01;98776.97;;;6.49;87.83
58018;BME280;43810;50.860;19.226;2023-05-29T03:16:27;98785.56;;;6.54;87.51
58018;BME280;43810;50.860;19.226;2023-05-29T03:18:55;98773.63;;;6.57;87.60
58018;BME280;43810;50.860;19.226;2023-05-29T03:21:20;98780.97;;;6.60;87.72
58018;BME280;43810;50.860;19.226;2023-05-29T03:23:47;98779.47;;;6.67;87.94
58018;BME280;43810;50.860;19.226;2023-05-29T03:26:13;98776.16;;;6.75;88.03
58018;BME280;43810;50.860;19.226;2023-05-29T03:28:39;98776.22;;;6.84;87.88
58018;BME280;43810;50.860;19.226;2023-05-29T03:31:05;98777.56;;;6.95;88.15
58018;BME280;43810;50.860;19.226;2023-05-29T03:33:31;98774.41;;;7.07;88.49
58018;BME280;43810;50.860;19.226;2023-05-29T03:35:57;98777.00;;;7.21;88.41
58018;BME280;43810;50.860;19.226;2023-05-29T03:38:23;98776.94;;;7.34;88.53
58018;BME280;43810;50.860;19.226;2023-05-29T03:40:49;98770.47;;;7.49;88.96
58018;BME280;43810;50.860;19.226;2023-05-29T03:43:15;98779.88;;;7.64;88.84
58018;BME280;43810;50.860;19.226;2023-05-29T03:45:41;98765.34;;;7.83;88.48
58018;BME280;43810;50.860;19.226;2023-05-29T03:48:07;98775.84;;;8.06;88.16
58018;BME280;43810;50.860;19.226;2023-05-29T03:50:33;98781.25;;;8.32;87.04
58018;BME280;43810;50.860;19.226;2023-05-29T03:52:59;98779.91;;;8.60;86.67
58018;BME280;43810;50.860;19.226;2023-05-29T03:55:26;98795.19;;;8.80;82.97
58018;BME280;43810;50.860;19.226;2023-05-29T03:57:53;98783.19;;;9.17;82.90
58018;BME280;43810;50.860;19.226;2023-05-29T04:00:19;98790.31;;;9.60;82.73
58018;BME280;43810;50.860;19.226;2023-05-29T04:02:45;98787.09;;;9.92;79.53
58018;BME280;43810;50.860;19.226;2023-05-29T04:05:11;98785.44;;;10.17;78.24
58018;BME280;43810;50.860;19.226;2023-05-29T04:07:38;98786.88;;;10.44;76.44
58018;BME280;43810;50.860;19.226;2023-05-29T04:10:05;98796.50;;;10.78;75.83
58018;BME280;43810;50.860;19.226;2023-05-29T04:12:33;98796.50;;;10.99;75.87
58018;BME280;43810;50.860;19.226;2023-05-29T04:14:59;98804.28;;;11.25;76.03
58018;BME280;43810;50.860;19.226;2023-05-29T04:17:25;98801.91;;;11.44;74.93
58018;BME280;43810;50.860;19.226;2023-05-29T04:19:51;98801.31;;;11.71;74.41
58018;BME280;43810;50.860;19.226;2023-05-29T04:22:17;98806.34;;;11.97;73.68
58018;BME280;43810;50.860;19.226;2023-05-29T04:24:43;98804.03;;;12.20;72.61
58018;BME280;43810;50.860;19.226;2023-05-29T04:27:09;98809.34;;;12.44;71.51
58018;BME280;43810;50.860;19.226;2023-05-29T04:29:44;98798.22;;;12.67;70.90
58018;BME280;43810;50.860;19.226;2023-05-29T04:32:10;98804.97;;;12.88;70.19
58018;BME280;43810;50.860;19.226;2023-05-29T04:34:39;98811.63;;;13.07;69.78
58018;BME280;43810;50.860;19.226;2023-05-29T04:37:05;98805.66;;;13.25;69.50
58018;BME280;43810;50.860;19.226;2023-05-29T04:39:31;98806.47;;;13.42;68.90
58018;BME280;43810;50.860;19.226;2023-05-29T04:41:58;98813.06;;;13.60;68.67
58018;BME280;43810;50.860;19.226;2023-05-29T04:44:26;98816.63;;;13.80;67.55
58018;BME280;43810;50.860;19.226;2023-05-29T04:46:52;98816.06;;;14.02;67.22
58018;BME280;43810;50.860;19.226;2023-05-29T04:49:19;98818.09;;;14.09;67.74
58018;BME280;43810;50.860;19.226;2023-05-29T04:51:46;98825.84;;;13.82;66.83
58018;BME280;43810;50.860;19.226;2023-05-29T04:54:12;98823.69;;;13.88;68.34
58018;BME280;43810;50.860;19.226;2023-05-29T04:56:38;98826.84;;;14.21;67.33
58018;BME280;43810;50.860;19.226;2023-05-29T04:59:06;98826.16;;;14.24;66.81
58018;BME280;43810;50.860;19.226;2023-05-29T05:01:32;98825.81;;;14.26;66.36
58018;BME280;43810;50.860;19.226;2023-05-29T05:04:01;98827.00;;;14.44;65.21
58018;BME280;43810;50.860;19.226;2023-05-29T05:06:27;98821.50;;;14.37;65.70
58018;BME280;43810;50.860;19.226;2023-05-29T05:08:54;98828.97;;;14.47;66.14
58018;BME280;43810;50.860;19.226;2023-05-29T05:11:23;98832.47;;;14.67;66.15
58018;BME280;43810;50.860;19.226;2023-05-29T05:13:49;98832.72;;;14.77;64.77
58018;BME280;43810;50.860;19.226;2023-05-29T05:16:15;98840.84;;;15.00;64.71
58018;BME280;43810;50.860;19.226;2023-05-29T05:18:43;98833.03;;;15.11;62.92
58018;BME280;43810;50.860;19.226;2023-05-29T05:21:09;98833.06;;;15.30;65.58
58018;BME280;43810;50.860;19.226;2023-05-29T05:23:36;98839.16;;;15.69;64.16
58018;BME280;43810;50.860;19.226;2023-05-29T05:26:02;98840.50;;;16.02;62.58
58018;BME280;43810;50.860;19.226;2023-05-29T05:28:28;98834.44;;;16.05;63.08
58018;BME280;43810;50.860;19.226;2023-05-29T05:30:54;98834.59;;;16.15;61.14
58018;BME280;43810;50.860;19.226;2023-05-29T05:33:19;98839.25;;;16.18;58.42
58018;BME280;43810;50.860;19.226;2023-05-29T05:35:46;98845.03;;;16.20;59.29
58018;BME280;43810;50.860;19.226;2023-05-29T05:38:11;98844.31;;;16.01;62.63
58018;BME280;43810;50.860;19.226;2023-05-29T05:40:38;98839.13;;;15.89;60.54
58018;BME280;43810;50.860;19.226;2023-05-29T05:43:03;98837.19;;;15.66;61.59
58018;BME280;43810;50.860;19.226;2023-05-29T05:45:29;98844.47;;;16.11;60.04
58018;BME280;43810;50.860;19.226;2023-05-29T05:47:56;98839.66;;;16.43;60.77
58018;BME280;43810;50.860;19.226;2023-05-29T05:50:22;98840.63;;;16.54;60.43
58018;BME280;43810;50.860;19.226;2023-05-29T05:52:49;98846.56;;;16.67;59.57
58018;BME280;43810;50.860;19.226;2023-05-29T05:55:16;98855.25;;;16.87;59.12
58018;BME280;43810;50.860;19.226;2023-05-29T05:57:41;98850.00;;;17.24;57.80
58018;BME280;43810;50.860;19.226;2023-05-29T06:00:07;98849.47;;;17.45;57.73
58018;BME280;43810;50.860;19.226;2023-05-29T06:02:37;98842.34;;;17.59;55.80
58018;BME280;43810;50.860;19.226;2023-05-29T06:05:04;98845.09;;;17.63;59.66
58018;BME280;43810;50.860;19.226;2023-05-29T06:07:32;98855.31;;;17.84;57.42
58018;BME280;43810;50.860;19.226;2023-05-29T06:09:58;98850.41;;;17.96;57.02
58018;BME280;43810;50.860;19.226;2023-05-29T06:12:24;98851.00;;;18.20;57.53
58018;BME280;43810;50.860;19.226;2023-05-29T06:14:50;98851.06;;;18.27;57.88
58018;BME280;43810;50.860;19.226;2023-05-29T06:17:16;98847.69;;;18.37;57.20
58018;BME280;43810;50.860;19.226;2023-05-29T06:19:42;98843.78;;;18.31;57.58
58018;BME280;43810;50.860;19.226;2023-05-29T06:22:07;98852.56;;;18.68;58.00
58018;BME280;43810;50.860;19.226;2023-05-29T06:24:34;98846.09;;;18.77;54.87
58018;BME280;43810;50.860;19.226;2023-05-29T06:26:59;98852.16;;;18.66;52.90
58018;BME280;43810;50.860;19.226;2023-05-29T06:29:27;98852.97;;;18.78;54.62
58018;BME280;43810;50.860;19.226;2023-05-29T06:31:52;98851.53;;;18.91;55.40
58018;BME280;43810;50.860;19.226;2023-05-29T06:34:19;98852.16;;;19.42;53.26
58018;BME280;43810;50.860;19.226;2023-05-29T06:36:44;98851.69;;;19.26;52.34
58018;BME280;43810;50.860;19.226;2023-05-29T06:39:10;98850.03;;;18.97;54.40
58018;BME280;43810;50.860;19.226;2023-05-29T06:41:36;98847.03;;;19.16;56.09
58018;BME280;43810;50.860;19.226;2023-05-29T06:44:02;98859.16;;;19.61;53.39
58018;BME280;43810;50.860;19.226;2023-05-29T06:46:28;98857.91;;;19.37;51.30
58018;BME280;43810;50.860;19.226;2023-05-29T06:48:54;98858.41;;;19.61;53.31
58018;BME280;43810;50.860;19.226;2023-05-29T06:51:20;98861.16;;;19.93;51.86
58018;BME280;43810;50.860;19.226;2023-05-29T06:53:46;98856.19;;;20.02;51.77
58018;BME280;43810;50.860;19.226;2023-05-29T06:56:11;98860.03;;;20.11;48.54
58018;BME280;43810;50.860;19.226;2023-05-29T06:58:37;98853.84;;;19.86;49.55
58018;BME280;43810;50.860;19.226;2023-05-29T07:01:03;98859.22;;;19.93;49.24
58018;BME280;43810;50.860;19.226;2023-05-29T07:03:29;98857.28;;;19.76;51.19
58018;BME280;43810;50.860;19.226;2023-05-29T07:05:56;98868.88;;;19.98;50.95
58018;BME280;43810;50.860;19.226;2023-05-29T07:08:23;98868.88;;;20.15;48.48
58018;BME280;43810;50.860;19.226;2023-05-29T07:10:48;98865.81;;;20.42;47.78
58018;BME280;43810;50.860;19.226;2023-05-29T07:13:16;98874.31;;;20.30;47.47
58018;BME280;43810;50.860;19.226;2023-05-29T07:15:42;98870.47;;;20.24;46.63
58018;BME280;43810;50.860;19.226;2023-05-29T07:18:08;98874.69;;;20.64;48.01
58018;BME280;43810;50.860;19.226;2023-05-29T07:20:33;98878.13;;;20.85;50.08
58018;BME280;43810;50.860;19.226;2023-05-29T07:22:59;98878.13;;;21.07;47.80
58018;BME280;43810;50.860;19.226;2023-05-29T07:25:25;98877.25;;;21.42;46.59
58018;BME280;43810;50.860;19.226;2023-05-29T07:27:52;98872.59;;;21.32;45.96
58018;BME280;43810;50.860;19.226;2023-05-29T07:30:17;98876.81;;;21.47;46.20
58018;BME280;43810;50.860;19.226;2023-05-29T07:32:44;98876.50;;;21.27;44.86
58018;BME280;43810;50.860;19.226;2023-05-29T07:35:10;98879.19;;;21.23;44.20
58018;BME280;43810;50.860;19.226;2023-05-29T07:37:37;98880.44;;;20.91;47.34
58018;BME280;43810;50.860;19.226;2023-05-29T07:40:03;98878.88;;;21.07;49.95
58018;BME280;43810;50.860;19.226;2023-05-29T07:42:33;98888.06;;;21.38;46.89
58018;BME280;43810;50.860;19.226;2023-05-29T07:44:59;98886.53;;;21.27;45.91
58018;BME280;43810;50.860;19.226;2023-05-29T07:47:25;98886.53;;;21.37;45.61
58018;BME280;43810;50.860;19.226;2023-05-29T07:49:51;98883.59;;;21.87;43.73
58018;BME280;43810;50.860;19.226;2023-05-29T07:52:18;98889.31;;;21.96;43.31
58018;BME280;43810;50.860;19.226;2023-05-29T07:54:44;98895.19;;;21.84;44.09
58018;BME280;43810;50.860;19.226;2023-05-29T07:57:10;98886.09;;;21.53;45.48
58018;BME280;43810;50.860;19.226;2023-05-29T07:59:37;98888.41;;;22.20;43.39
58018;BME280;43810;50.860;19.226;2023-05-29T08:02:03;98887.72;;;22.06;45.45
58018;BME280;43810;50.860;19.226;2023-05-29T08:04:30;98882.91;;;22.31;43.14
58018;BME280;43810;50.860;19.226;2023-05-29T08:06:56;98888.41;;;22.13;42.15
58018;BME280;43810;50.860;19.226;2023-05-29T08:09:22;98883.53;;;21.98;41.74
58018;BME280;43810;50.860;19.226;2023-05-29T08:11:48;98893.72;;;21.69;42.31
58018;BME280;43810;50.860;19.226;2023-05-29T08:14:14;98891.31;;;21.85;44.36
58018;BME280;43810;50.860;19.226;2023-05-29T08:16:41;98884.47;;;22.32;42.25
58018;BME280;43810;50.860;19.226;2023-05-29T08:19:07;98891.84;;;22.24;44.59
58018;BME280;43810;50.860;19.226;2023-05-29T08:21:33;98893.88;;;22.06;39.22
58018;BME280;43810;50.860;19.226;2023-05-29T08:23:59;98893.78;;;22.27;41.60
58018;BME280;43810;50.860;19.226;2023-05-29T08:26:26;98893.66;;;22.45;40.97
58018;BME280;43810;50.860;19.226;2023-05-29T08:28:52;98885.09;;;22.47;38.84
58018;BME280;43810;50.860;19.226;2023-05-29T08:31:18;98893.09;;;22.64;40.68
58018;BME280;43810;50.860;19.226;2023-05-29T08:33:44;98889.22;;;23.07;39.44
58018;BME280;43810;50.860;19.226;2023-05-29T08:36:10;98886.66;;;22.89;41.22
58018;BME280;43810;50.860;19.226;2023-05-29T08:38:36;98883.66;;;23.17;40.50
58018;BME280;43810;50.860;19.226;2023-05-29T08:41:02;98885.72;;;23.40;41.99
58018;BME280;43810;50.860;19.226;2023-05-29T08:43:31;98878.66;;;23.50;36.95
58018;BME280;43810;50.860;19.226;2023-05-29T08:46:02;98883.78;;;23.07;40.75
58018;BME280;43810;50.860;19.226;2023-05-29T08:48:29;98882.09;;;23.20;39.95
58018;BME280;43810;50.860;19.226;2023-05-29T08:50:58;98879.84;;;23.49;39.91
58018;BME280;43810;50.860;19.226;2023-05-29T08:53:24;98882.81;;;23.58;40.11
58018;BME280;43810;50.860;19.226;2023-05-29T08:55:52;98881.84;;;23.41;40.57
58018;BME280;43810;50.860;19.226;2023-05-29T08:58:19;98885.19;;;23.22;38.22
58018;BME280;43810;50.860;19.226;2023-05-29T09:00:50;98890.94;;;23.58;38.34
58018;BME280;43810;50.860;19.226;2023-05-29T09:03:19;98888.31;;;23.51;39.27
58018;BME280;43810;50.860;19.226;2023-05-29T09:05:46;98890.09;;;22.93;38.58
58018;BME280;43810;50.860;19.226;2023-05-29T09:08:12;98895.78;;;23.06;40.44
58018;BME280;43810;50.860;19.226;2023-05-29T09:10:40;98894.06;;;23.56;37.06
58018;BME280;43810;50.860;19.226;2023-05-29T09:13:07;98897.41;;;23.67;38.22
58018;BME280;43810;50.860;19.226;2023-05-29T09:15:34;98893.63;;;23.92;35.05
58018;BME280;43810;50.860;19.226;2023-05-29T09:18:01;98893.25;;;23.59;37.78
58018;BME280;43810;50.860;19.226;2023-05-29T09:20:27;98880.84;;;24.16;35.62
58018;BME280;43810;50.860;19.226;2023-05-29T09:22:58;98883.63;;;24.35;35.84
58018;BME280;43810;50.860;19.226;2023-05-29T09:25:28;98886.25;;;23.92;36.56
58018;BME280;43810;50.860;19.226;2023-05-29T09:28:04;98886.03;;;23.49;37.88
58018;BME280;43810;50.860;19.226;2023-05-29T09:30:32;98885.72;;;23.40;36.46
58018;BME280;43810;50.860;19.226;2023-05-29T09:33:01;98881.03;;;23.74;39.35
58018;BME280;43810;50.860;19.226;2023-05-29T09:38:02;98885.56;;;24.11;34.73
58018;BME280;43810;50.860;19.226;2023-05-29T09:40:33;98878.09;;;24.42;34.78
58018;BME280;43810;50.860;19.226;2023-05-29T09:45:30;98884.75;;;24.15;36.25
58018;BME280;43810;50.860;19.226;2023-05-29T09:47:57;98879.59;;;24.20;32.81
58018;BME280;43810;50.860;19.226;2023-05-29T09:50:26;98874.81;;;24.04;34.49
58018;BME280;43810;50.860;19.226;2023-05-29T09:52:56;98876.41;;;24.02;36.02
58018;BME280;43810;50.860;19.226;2023-05-29T09:55:27;98884.22;;;24.50;38.79
58018;BME280;43810;50.860;19.226;2023-05-29T09:57:54;98872.78;;;24.35;34.48
58018;BME280;43810;50.860;19.226;2023-05-29T10:00:21;98876.28;;;24.59;34.98
58018;BME280;43810;50.860;19.226;2023-05-29T10:02:50;98871.47;;;24.43;35.85
58018;BME280;43810;50.860;19.226;2023-05-29T10:05:16;98876.84;;;24.47;35.07
58018;BME280;43810;50.860;19.226;2023-05-29T10:07:45;98871.06;;;24.92;34.09
58018;BME280;43810;50.860;19.226;2023-05-29T10:10:17;98869.41;;;25.17;36.88
58018;BME280;43810;50.860;19.226;2023-05-29T10:12:48;98865.91;;;25.37;32.70
58018;BME280;43810;50.860;19.226;2023-05-29T10:15:16;98869.63;;;25.27;33.33
58018;BME280;43810;50.860;19.226;2023-05-29T10:17:50;98876.78;;;24.97;34.15
58018;BME280;43810;50.860;19.226;2023-05-29T10:20:20;98870.16;;;24.98;32.85
58018;BME280;43810;50.860;19.226;2023-05-29T10:22:51;98864.72;;;24.98;34.66
58018;BME280;43810;50.860;19.226;2023-05-29T10:25:19;98869.69;;;25.23;34.98
58018;BME280;43810;50.860;19.226;2023-05-29T10:27:46;98870.13;;;25.41;36.81
58018;BME280;43810;50.860;19.226;2023-05-29T10:30:25;98868.50;;;25.44;31.36
58018;BME280;43810;50.860;19.226;2023-05-29T10:35:52;98865.59;;;25.71;33.71
58018;BME280;43810;50.860;19.226;2023-05-29T10:38:18;98866.47;;;25.48;32.13
58018;BME280;43810;50.860;19.226;2023-05-29T10:40:45;98858.41;;;25.80;31.51
58018;BME280;43810;50.860;19.226;2023-05-29T10:43:30;98861.72;;;25.88;35.58
58018;BME280;43810;50.860;19.226;2023-05-29T10:46:00;98853.41;;;25.59;35.04
58018;BME280;43810;50.860;19.226;2023-05-29T10:50:55;98847.97;;;25.59;32.07
58018;BME280;43810;50.860;19.226;2023-05-29T10:53:31;98848.94;;;25.69;34.37
58018;BME280;43810;50.860;19.226;2023-05-29T10:55:59;98852.38;;;24.94;34.68
58018;BME280;43810;50.860;19.226;2023-05-29T10:58:27;98849.44;;;24.85;34.41
58018;BME280;43810;50.860;19.226;2023-05-29T11:00:54;98850.03;;;24.53;35.14
58018;BME280;43810;50.860;19.226;2023-05-29T11:03:23;98853.50;;;24.76;33.74
58018;BME280;43810;50.860;19.226;2023-05-29T11:06:06;98843.44;;;25.13;35.62
58018;BME280;43810;50.860;19.226;2023-05-29T11:08:44;98846.56;;;24.72;38.36
58018;BME280;43810;50.860;19.226;2023-05-29T11:13:56;98842.97;;;25.18;35.67
58018;BME280;43810;50.860;19.226;2023-05-29T11:18:55;98845.00;;;25.53;33.96
58018;BME280;43810;50.860;19.226;2023-05-29T11:23:52;98846.13;;;25.72;32.66
58018;BME280;43810;50.860;19.226;2023-05-29T11:26:27;98843.69;;;25.78;32.75
58018;BME280;43810;50.860;19.226;2023-05-29T11:28:56;98845.22;;;25.43;33.76
58018;BME280;43810;50.860;19.226;2023-05-29T11:31:23;98839.00;;;25.42;30.53
58018;BME280;43810;50.860;19.226;2023-05-29T11:33:50;98835.75;;;25.83;33.75
58018;BME280;43810;50.860;19.226;2023-05-29T11:36:21;98830.75;;;26.47;32.96
58018;BME280;43810;50.860;19.226;2023-05-29T11:38:47;98825.19;;;26.83;29.83
58018;BME280;43810;50.860;19.226;2023-05-29T11:41:13;98836.41;;;26.85;31.60
58018;BME280;43810;50.860;19.226;2023-05-29T11:43:39;98840.22;;;26.87;33.83
58018;BME280;43810;50.860;19.226;2023-05-29T11:46:19;98829.34;;;26.10;33.89
58018;BME280;43810;50.860;19.226;2023-05-29T11:48:46;98832.53;;;25.88;32.14
58018;BME280;43810;50.860;19.226;2023-05-29T11:51:12;98834.44;;;26.08;31.36
58018;BME280;43810;50.860;19.226;2023-05-29T11:53:43;98832.50;;;25.72;32.48
58018;BME280;43810;50.860;19.226;2023-05-29T11:56:10;98831.56;;;25.99;32.46
58018;BME280;43810;50.860;19.226;2023-05-29T11:58:37;98828.38;;;25.48;31.48
58018;BME280;43810;50.860;19.226;2023-05-29T12:01:05;98828.97;;;25.75;33.12
58018;BME280;43810;50.860;19.226;2023-05-29T12:03:40;98834.19;;;25.50;34.15
58018;BME280;43810;50.860;19.226;2023-05-29T12:06:11;98827.13;;;25.52;32.69
58018;BME280;43810;50.860;19.226;2023-05-29T12:08:37;98828.59;;;25.57;33.72
58018;BME280;43810;50.860;19.226;2023-05-29T12:11:04;98818.41;;;25.77;34.63
58018;BME280;43810;50.860;19.226;2023-05-29T12:13:30;98816.47;;;26.43;31.75
58018;BME280;43810;50.860;19.226;2023-05-29T12:15:58;98809.75;;;27.05;28.67
58018;BME280;43810;50.860;19.226;2023-05-29T12:18:25;98808.75;;;27.41;30.65
58018;BME280;43810;50.860;19.226;2023-05-29T12:21:02;98805.28;;;27.53;29.38
58018;BME280;43810;50.860;19.226;2023-05-29T12:23:28;98804.50;;;27.65;28.87
58018;BME280;43810;50.860;19.226;2023-05-29T12:25:56;98800.94;;;26.85;31.48
58018;BME280;43810;50.860;19.226;2023-05-29T12:28:22;98809.19;;;26.69;32.33
58018;BME280;43810;50.860;19.226;2023-05-29T12:30:49;98808.84;;;26.67;29.57
58018;BME280;43810;50.860;19.226;2023-05-29T12:33:29;98800.00;;;26.63;30.63
58018;BME280;43810;50.860;19.226;2023-05-29T12:36:02;98807.53;;;27.29;32.76
58018;BME280;43810;50.860;19.226;2023-05-29T12:38:27;98800.03;;;27.04;28.88
58018;BME280;43810;50.860;19.226;2023-05-29T12:40:53;98799.50;;;27.09;30.18
58018;BME280;43810;50.860;19.226;2023-05-29T12:43:20;98790.41;;;27.41;28.43
58018;BME280;43810;50.860;19.226;2023-05-29T12:45:46;98794.72;;;27.26;29.64
58018;BME280;43810;50.860;19.226;2023-05-29T12:48:12;98786.59;;;27.39;29.63
58018;BME280;43810;50.860;19.226;2023-05-29T12:50:38;98782.84;;;28.56;27.35
58018;BME280;43810;50.860;19.226;2023-05-29T12:53:05;98784.88;;;28.64;28.17
58018;BME280;43810;50.860;19.226;2023-05-29T12:55:34;98779.47;;;28.73;29.99
58018;BME280;43810;50.860;19.226;2023-05-29T12:58:08;98781.06;;;28.27;28.65
58018;BME280;43810;50.860;19.226;2023-05-29T13:00:40;98774.38;;;28.28;28.29
58018;BME280;43810;50.860;19.226;2023-05-29T13:03:07;98773.72;;;28.24;29.93
58018;BME280;43810;50.860;19.226;2023-05-29T13:05:33;98771.97;;;28.65;26.33
58018;BME280;43810;50.860;19.226;2023-05-29T13:08:00;98761.72;;;29.00;27.01
58018;BME280;43810;50.860;19.226;2023-05-29T13:10:26;98765.94;;;29.54;24.86
58018;BME280;43810;50.860;19.226;2023-05-29T13:12:54;98762.66;;;29.77;24.42
58018;BME280;43810;50.860;19.226;2023-05-29T13:15:22;98766.41;;;30.19;27.00
58018;BME280;43810;50.860;19.226;2023-05-29T13:17:48;98757.91;;;30.17;26.84
58018;BME280;43810;50.860;19.226;2023-05-29T13:20:14;98762.66;;;29.77;25.96
58018;BME280;43810;50.860;19.226;2023-05-29T13:22:42;98748.81;;;29.31;25.57